createdAt,value
2022-09-28T00:05:38.828Z,7.490105037625419
2022-09-28T00:12:07.744Z,7.466069188963211
2022-09-28T00:18:37.448Z,7.421580398202341
2022-09-28T00:34:10.807Z,7.371990619774246
2022-09-28T00:41:49.086Z,7.375491220735787
2022-09-28T00:53:40.083Z,7.341947115384615
2022-09-28T01:00:08.616Z,7.436021765259197
2022-09-28T01:12:00.468Z,7.497628161580267
2022-09-28T01:18:29.741Z,7.51114914297659
2022-09-28T01:25:04.714Z,7.468185618729097
2022-09-28T01:31:33.443Z,7.527591320025083
2022-09-28T01:38:01.266Z,7.55959970735786
2022-09-28T01:44:29.504Z,7.589683058110369
2022-09-28T01:50:57.493Z,7.606575956312709
2022-09-28T01:57:25.672Z,7.57602294105351
2022-09-28T02:03:53.672Z,7.65037037520903
2022-09-28T02:17:25.531Z,7.620609061454848
2022-09-28T02:24:02.433Z,7.656182718436453
2022-09-28T02:36:33.420Z,7.707286005434782
2022-09-28T02:43:01.740Z,7.696680340719063
2022-09-28T02:49:29.772Z,7.6509765624999995
2022-09-28T02:55:57.931Z,7.716386000209031
2022-09-28T03:03:09.209Z,7.676255487040135
2022-09-28T03:10:50.352Z,7.771541858277592
2022-09-28T03:25:06.181Z,7.811100151546823
2022-09-28T03:31:34.464Z,7.8189766670150505
2022-09-28T03:38:02.754Z,7.829658758361204
2022-09-28T03:44:31.640Z,7.845727294105353
2022-09-28T03:54:15.957Z,7.897217286789298
2022-09-28T04:00:43.931Z,7.851250261287625
2022-09-28T04:12:53.629Z,7.797771869774248
2022-09-28T04:19:21.101Z,7.845937630643812
2022-09-28T04:29:11.252Z,7.805615724289298
2022-09-28T04:36:39.900Z,7.8370205372073585
2022-09-28T04:43:07.673Z,7.815122674540134
2022-09-28T04:49:35.679Z,7.8122485106605355
2022-09-28T04:56:02.507Z,7.840163827341137
2022-09-28T05:03:29.584Z,7.845102816680603
2022-09-28T05:15:39.979Z,7.763118598453176
2022-09-28T05:22:08.172Z,7.766013665342809
2022-09-28T05:34:29.980Z,7.777756584448162
2022-09-28T05:40:57.818Z,7.7512045359531765
2022-09-28T05:51:23.519Z,7.761659307065217
2022-09-28T05:57:49.976Z,7.7721251829013385
2022-09-28T06:04:17.242Z,7.851479541178929
2022-09-28T06:10:44.725Z,7.839883596362875
2022-09-28T06:17:11.181Z,7.854259641513377
2022-09-28T06:23:48.987Z,7.84894962374582
2022-09-28T06:36:36.033Z,7.858538226379598
2022-09-28T06:44:47.305Z,7.856053381061873
2022-09-28T06:51:14.838Z,7.85068000104515
2022-09-28T06:57:42.472Z,7.862329509824415
2022-09-28T07:04:10.265Z,7.924392506270903
2022-09-28T07:10:37.790Z,7.935359401128761
2022-09-28T07:20:16.367Z,8.076690530936455
2022-09-28T07:26:52.348Z,8.133766199832776
2022-09-28T07:33:18.782Z,8.224907896112041
2022-09-28T07:39:46.048Z,8.296667929556856
2022-09-28T07:49:11.436Z,8.460517480142142
2022-09-28T08:03:44.582Z,8.627665786998328
2022-09-28T08:10:12.059Z,8.739528898411372
2022-09-28T08:23:56.500Z,8.894733094690634
2022-09-28T08:30:24.992Z,8.796992579431437
2022-09-28T08:36:52.988Z,8.713999137750838
2022-09-28T08:44:03.610Z,8.735645511078594
2022-09-28T08:50:33.199Z,8.861327471780935
2022-09-28T08:57:00.928Z,8.864950877926422
2022-09-28T09:07:41.978Z,8.871321723453176
2022-09-28T09:14:09.625Z,8.943431882316053
2022-09-28T09:21:01.438Z,8.978317699623746
2022-09-28T09:27:49.568Z,8.980544523411371
2022-09-28T09:34:18.386Z,8.960525318770902
2022-09-28T09:47:12.360Z,8.866843906772575
2022-09-28T09:53:41.050Z,9.103087113294313
2022-09-28T10:09:54.709Z,9.418874111622074
2022-09-28T10:16:24.932Z,9.53489626881271
2022-09-28T10:29:03.613Z,9.27379873014214
2022-09-28T11:00:12.401Z,9.875235158862877
2022-09-28T11:06:41.317Z,10.142919758570235
2022-09-28T11:13:09.415Z,10.242902774874583
2022-09-28T11:19:37.522Z,10.383709369774248
2022-09-28T11:31:45.914Z,10.798947010869565
2022-09-28T11:45:32.569Z,11.161165473453176
2022-09-28T11:56:18.034Z,11.489575930183946
2022-09-28T12:02:47.023Z,11.385334578804349
2022-09-28T12:10:07.895Z,11.459030753553513
2022-09-28T12:17:04.318Z,11.873890180811037
2022-09-28T12:23:42.624Z,11.94346258361204
2022-09-28T12:30:11.652Z,11.696201531145485
2022-09-28T12:36:41.994Z,11.48761431333612
2022-09-28T12:48:37.869Z,10.984081051421406
2022-09-28T12:58:38.270Z,10.774381401546822
2022-09-28T13:06:22.590Z,10.72400710702341
2022-09-28T13:14:56.410Z,10.704418373745819
2022-09-28T13:24:14.810Z,10.756335571697324
2022-09-28T13:33:03.915Z,11.017536972198997
2022-09-28T13:39:34.308Z,11.192302466555185
2022-09-28T13:50:43.090Z,11.165410090928095
2022-09-28T13:57:12.417Z,11.012850778637125
2022-09-28T14:03:42.217Z,11.057998014214046
2022-09-28T14:16:29.739Z,10.844372517767557
2022-09-28T14:22:58.977Z,10.692672841764216
2022-09-28T14:29:29.122Z,10.636107336956522
2022-09-28T14:35:57.857Z,10.597562839673914
2022-09-28T14:42:27.248Z,10.540140964673911
2022-09-28T14:52:19.850Z,10.55904904368729
2022-09-28T15:03:13.395Z,10.710079823369565
2022-09-28T15:13:42.202Z,10.684493885869566
2022-09-28T15:20:13.146Z,10.641708690426421
2022-09-28T15:28:34.929Z,10.608681281354514
2022-09-28T15:41:55.987Z,10.783127351588629
2022-09-28T15:48:26.488Z,10.773294445025083
2022-09-28T15:54:56.439Z,10.686045281145486
2022-09-28T16:01:26.695Z,10.59097120610368
2022-09-28T16:07:56.699Z,10.486032216764213
2022-09-28T16:14:26.656Z,10.417053590091973
2022-09-28T16:20:57.012Z,10.387656772575252
2022-09-28T16:28:10.486Z,10.261639057274246
2022-09-28T16:34:40.335Z,10.113439982232443
2022-09-28T16:43:56.475Z,9.944503814799331
2022-09-28T16:50:26.818Z,9.833772078804348
2022-09-28T16:59:03.108Z,9.694030884197325
2022-09-28T17:05:33.131Z,9.576190818352844
2022-09-28T17:18:21.502Z,9.398001802884616
2022-09-28T17:27:21.474Z,9.252460022993311
2022-09-28T17:33:51.508Z,9.165514605978261
2022-09-28T17:40:21.517Z,9.099440191262543
2022-09-28T17:46:51.163Z,9.032491116220736
2022-09-28T17:53:21.441Z,8.943742161371237
2022-09-28T18:00:44.917Z,8.873227816680602
2022-09-28T18:25:51.197Z,8.714696122491638
2022-09-28T18:32:21.558Z,8.742374320652173
2022-09-28T18:38:51.709Z,8.771631349289297
2022-09-28T18:49:43.585Z,8.807485237249162
2022-09-28T18:56:17.233Z,8.753121733904681
2022-09-28T19:06:04.995Z,8.758116246864548
2022-09-28T19:12:36.645Z,8.767840719063546
2022-09-28T19:19:09.973Z,8.676360002090302
2022-09-28T19:25:54.372Z,8.60546875
2022-09-28T19:32:33.252Z,8.57018512228261
2022-09-28T19:39:08.818Z,8.690506114130434
2022-09-28T19:52:46.448Z,8.648375444188963
2022-09-28T19:59:21.053Z,8.639573970526756
2022-09-28T20:05:54.775Z,8.589802597198998
2022-09-28T20:12:28.680Z,8.472048756270903
2022-09-28T20:28:28.645Z,8.290389841137126
2022-09-28T20:40:59.348Z,8.24023241534281
2022-09-28T20:47:33.594Z,8.204140102424748
2022-09-28T20:54:06.994Z,8.1723982284699
2022-09-28T21:00:41.400Z,8.148932640050168
2022-09-28T21:34:15.591Z,8.06844037416388
2022-09-28T21:40:50.544Z,7.981442699623747
2022-09-28T21:47:25.938Z,7.901875391931439
2022-09-28T21:55:29.583Z,7.903076008570235
2022-09-28T22:02:04.576Z,7.93800297867893
2022-09-28T22:08:39.240Z,7.962537886705687
2022-09-28T22:25:25.700Z,7.92282412729933
2022-09-28T22:31:58.474Z,7.933078360158864
2022-09-28T22:38:32.055Z,7.950435043896321
2022-09-28T22:45:05.369Z,7.970637149874581
2022-09-28T22:51:39.712Z,7.948114156563545
2022-09-28T22:58:45.554Z,7.921648986204013
2022-09-28T23:05:20.830Z,7.868941393185619
2022-09-28T23:15:48.677Z,7.818644178511705
2022-09-28T23:22:23.541Z,7.850280884197323
2022-09-28T23:29:09.530Z,7.821433423913044
2022-09-28T23:36:05.238Z,7.827466555183948
2022-09-28T23:56:40.619Z,7.699956234322742
